Time;durP1;ratioP1;P1;durP2;ratioP2;P2;SDS_P1;SDS_P2;PMS_P1;PMS_P2;Temp;Humidity;BMP_temperature;BMP_pressure;BME280_temperature;BME280_humidity;BME280_pressure;Samples;Min_cycle;Max_cycle;Signal;HPM_P1;HPM_P2
2023/08/10 00:02:40;;;;;;;4.93;3.20;;;16.20;97.40;;;;;;5013143;28;20490;-57
2023/08/10 00:05:27;;;;;;;5.18;3.38;;;16.10;97.60;;;;;;5014022;28;20038;-57
2023/08/10 00:08:13;;;;;;;3.80;3.00;;;16.10;98.10;;;;;;5012429;28;20049;-55
2023/08/10 00:10:59;;;;;;;4.55;2.97;;;16.10;98.50;;;;;;5012391;28;20064;-56
2023/08/10 00:13:45;;;;;;;3.58;3.20;;;16.20;98.90;;;;;;5012213;28;20029;-55
2023/08/10 00:16:32;;;;;;;4.30;2.97;;;16.20;99.00;;;;;;5011726;28;20457;-56
2023/08/10 00:19:18;;;;;;;4.97;2.80;;;16.20;99.00;;;;;;5012023;28;20026;-52
2023/08/10 00:22:04;;;;;;;3.50;2.92;;;16.20;99.30;;;;;;5012236;28;20057;-56
2023/08/10 00:24:50;;;;;;;3.22;2.70;;;16.20;99.40;;;;;;5011896;28;20034;-57
2023/08/10 00:27:38;;;;;;;3.80;2.90;;;16.30;99.30;;;;;;5011513;28;20030;-53
2023/08/10 00:30:24;;;;;;;5.22;2.83;;;16.20;99.30;;;;;;5011725;28;20513;-57
2023/08/10 00:33:11;;;;;;;7.68;3.40;;;16.20;99.90;;;;;;5012182;28;20026;-55
2023/08/10 00:35:59;;;;;;;5.75;2.85;;;16.10;99.80;;;;;;5011675;28;20081;-54
2023/08/10 00:38:45;;;;;;;3.92;2.80;;;16.10;99.90;;;;;;5011635;28;20030;-56
2023/08/10 00:41:31;;;;;;;3.90;3.08;;;16.00;99.90;;;;;;5011309;28;20551;-48
2023/08/10 00:44:17;;;;;;;3.80;3.05;;;16.10;99.90;;;;;;5011418;28;20042;-51
2023/08/10 00:47:03;;;;;;;4.15;3.03;;;16.10;99.90;;;;;;4991264;28;20030;-53
2023/08/10 00:49:49;;;;;;;4.07;2.67;;;16.10;99.90;;;;;;4992105;28;20116;-56
2023/08/10 00:52:36;;;;;;;4.70;3.00;;;16.00;99.90;;;;;;4992482;28;20037;-55
2023/08/10 00:55:22;;;;;;;4.45;2.90;;;16.00;99.90;;;;;;5023728;28;20529;-55
2023/08/10 00:58:08;;;;;;;4.32;3.22;;;16.00;99.90;;;;;;5031359;28;20029;-52
2023/08/10 01:00:54;;;;;;;4.00;3.38;;;16.00;99.90;;;;;;5031911;28;20029;-50
2023/08/10 01:03:40;;;;;;;4.50;3.20;;;15.90;99.90;;;;;;5031757;28;20095;-53
2023/08/10 01:06:38;;;;;;;5.93;3.28;;;15.80;99.90;;;;;;5030692;28;20509;-54
2023/08/10 01:09:24;;;;;;;5.25;3.55;;;15.80;99.90;;;;;;5031462;28;20398;-51
2023/08/10 01:12:55;;;;;;;5.38;4.10;;;15.60;99.90;;;;;;5031745;28;20498;-53
2023/08/10 01:15:50;;;;;;;7.13;3.47;;;15.40;99.90;;;;;;5031414;28;20383;-52
2023/08/10 01:18:40;;;;;;;6.30;3.50;;;15.20;99.90;;;;;;5031259;28;20028;-54
2023/08/10 01:21:35;;;;;;;5.15;3.30;;;15.20;99.90;;;;;;5015271;28;20030;-56
2023/08/10 01:24:27;;;;;;;6.00;3.17;;;15.30;99.90;;;;;;4998372;28;20030;-53
2023/08/10 01:27:14;;;;;;;3.85;3.20;;;15.30;99.90;;;;;;5011553;28;20506;-54
2023/08/10 01:30:03;;;;;;;11.40;3.75;;;15.30;99.90;;;;;;5012075;28;20073;-52
2023/08/10 01:32:52;;;;;;;5.68;3.92;;;15.30;99.90;;;;;;5010298;28;20455;-54
2023/08/10 01:35:39;;;;;;;4.60;3.60;;;15.30;99.90;;;;;;5010980;28;20053;-56
2023/08/10 01:38:25;;;;;;;4.75;3.38;;;15.20;99.90;;;;;;5011861;28;20026;-49
2023/08/10 01:41:11;;;;;;;8.93;4.13;;;15.20;99.90;;;;;;5011368;28;20501;-48
2023/08/10 01:43:57;;;;;;;4.65;3.58;;;15.20;99.90;;;;;;5011273;28;20034;-51
2023/08/10 01:46:46;;;;;;;6.32;3.72;;;15.10;99.90;;;;;;5011006;28;20113;-56
2023/08/10 01:49:34;;;;;;;4.65;3.38;;;15.00;99.90;;;;;;5010056;28;20025;-54
2023/08/10 01:52:25;;;;;;;8.88;3.47;;;15.00;99.90;;;;;;5010385;28;20029;-55
2023/08/10 01:55:12;;;;;;;6.07;3.63;;;15.00;99.90;;;;;;5025723;28;20029;-53
2023/08/10 01:57:58;;;;;;;6.15;3.60;;;14.80;99.90;;;;;;5030970;28;20359;-52
2023/08/10 02:00:45;;;;;;;5.00;3.28;;;14.70;99.90;;;;;;5030740;28;20026;-53
2023/08/10 02:03:31;;;;;;;4.72;3.28;;;14.60;99.90;;;;;;5030681;28;20174;-55
2023/08/10 02:06:17;;;;;;;5.80;3.70;;;14.70;99.90;;;;;;5030326;28;20026;-52
2023/08/10 02:09:05;;;;;;;4.20;3.50;;;14.70;99.90;;;;;;5016493;28;20044;-52
2023/08/10 02:11:51;;;;;;;4.13;3.25;;;14.80;99.90;;;;;;5031036;28;20101;-54
2023/08/10 02:14:37;;;;;;;5.97;3.83;;;14.80;99.90;;;;;;5030958;28;20028;-51
2023/08/10 02:17:22;;;;;;;4.40;3.30;;;14.80;99.90;;;;;;5030488;28;20418;-53
2023/08/10 02:20:13;;;;;;;5.88;3.58;;;14.80;99.90;;;;;;5025832;28;20030;-55
2023/08/10 02:22:59;;;;;;;4.90;3.10;;;14.80;99.90;;;;;;5014817;28;20042;-55
2023/08/10 02:25:45;;;;;;;5.63;3.50;;;14.80;99.90;;;;;;5014706;28;20026;-57
2023/08/10 02:28:31;;;;;;;4.18;3.20;;;14.70;99.90;;;;;;5014446;28;20045;-53
2023/08/10 02:31:16;;;;;;;4.95;3.28;;;14.70;99.90;;;;;;5014504;28;20517;-55
2023/08/10 02:34:03;;;;;;;3.85;3.20;;;14.60;99.90;;;;;;5013656;28;20038;-52
2023/08/10 02:36:49;;;;;;;5.72;3.55;;;14.60;99.90;;;;;;5014630;28;20033;-56
2023/08/10 02:39:35;;;;;;;4.75;3.35;;;14.60;99.90;;;;;;5014216;28;20088;-52
2023/08/10 02:42:21;;;;;;;4.53;3.28;;;14.60;99.90;;;;;;5014005;28;20089;-55
2023/08/10 02:45:07;;;;;;;4.60;3.40;;;14.70;99.90;;;;;;5015419;28;20030;-53
2023/08/10 02:47:53;;;;;;;5.10;3.38;;;14.70;99.90;;;;;;5014513;28;20030;-53
2023/08/10 02:50:39;;;;;;;5.32;3.40;;;14.70;99.90;;;;;;5013577;28;20491;-54
2023/08/10 02:53:25;;;;;;;5.47;3.15;;;14.60;99.90;;;;;;5013953;28;20457;-52
2023/08/10 02:56:11;;;;;;;3.50;3.03;;;14.60;99.90;;;;;;5014063;28;20065;-49
2023/08/10 02:58:57;;;;;;;3.97;3.00;;;14.60;99.90;;;;;;5012938;28;20170;-51
2023/08/10 03:01:45;;;;;;;3.35;3.00;;;14.60;99.90;;;;;;5013459;28;20097;-48
2023/08/10 03:04:31;;;;;;;3.95;3.33;;;14.70;99.90;;;;;;5014195;28;20030;-51
2023/08/10 03:07:17;;;;;;;3.92;3.10;;;14.70;99.90;;;;;;5013066;28;20449;-50
2023/08/10 03:10:03;;;;;;;5.30;3.47;;;14.70;99.90;;;;;;5013533;28;20058;-52
2023/08/10 03:12:49;;;;;;;3.85;3.17;;;14.70;99.90;;;;;;5013512;28;20034;-51
2023/08/10 03:15:35;;;;;;;4.05;3.50;;;14.60;99.90;;;;;;5013592;28;20478;-52
2023/08/10 03:18:21;;;;;;;5.35;2.97;;;14.60;99.90;;;;;;5013209;28;20113;-53
2023/08/10 03:21:07;;;;;;;4.75;3.70;;;14.60;99.90;;;;;;5000430;28;20034;-56
2023/08/10 03:23:53;;;;;;;14.30;10.07;;;14.60;99.90;;;;;;5011937;28;20109;-48
2023/08/10 03:26:39;;;;;;;13.75;11.45;;;14.60;99.90;;;;;;5011817;28;20119;-50
2023/08/10 03:29:25;;;;;;;6.72;4.50;;;14.60;99.90;;;;;;5013765;28;20034;-54
2023/08/10 03:32:11;;;;;;;8.13;4.15;;;14.50;99.90;;;;;;5013520;28;20022;-54
2023/08/10 03:34:57;;;;;;;5.38;3.58;;;14.50;99.90;;;;;;5001287;28;20097;-50
2023/08/10 03:37:43;;;;;;;4.80;3.50;;;14.50;99.90;;;;;;5013023;28;20041;-53
2023/08/10 03:40:29;;;;;;;4.57;3.50;;;14.40;99.90;;;;;;5013494;28;20532;-52
2023/08/10 03:43:15;;;;;;;4.63;3.72;;;14.40;99.90;;;;;;5000388;28;20355;-50
2023/08/10 03:46:02;;;;;;;6.63;3.00;;;14.30;99.90;;;;;;5014298;28;20036;-52
2023/08/10 03:48:48;;;;;;;4.07;3.60;;;14.30;99.90;;;;;;5013868;28;20040;-50
2023/08/10 03:51:34;;;;;;;4.28;3.47;;;14.30;99.90;;;;;;5013804;28;20030;-53
2023/08/10 03:54:20;;;;;;;4.90;3.53;;;14.30;99.90;;;;;;5013691;28;20095;-54
2023/08/10 03:57:06;;;;;;;4.03;3.47;;;14.30;99.90;;;;;;5012961;28;20034;-51
2023/08/10 03:59:52;;;;;;;4.75;3.45;;;14.30;99.90;;;;;;5013474;28;20034;-55
2023/08/10 04:02:38;;;;;;;3.85;3.30;;;14.40;99.90;;;;;;5014058;28;20026;-53
2023/08/10 04:05:24;;;;;;;5.95;4.15;;;14.40;99.90;;;;;;5012793;28;20528;-52
2023/08/10 04:08:10;;;;;;;6.15;3.80;;;14.50;99.90;;;;;;5013299;28;20364;-49
2023/08/10 04:10:56;;;;;;;4.18;3.17;;;14.50;99.90;;;;;;5012912;28;20080;-51
2023/08/10 04:13:42;;;;;;;8.40;3.92;;;14.50;99.90;;;;;;5014385;28;20037;-52
2023/08/10 04:16:28;;;;;;;6.03;3.40;;;14.60;99.90;;;;;;5012914;28;20030;-54
2023/08/10 04:19:14;;;;;;;4.40;3.50;;;14.60;99.90;;;;;;5013233;28;20038;-53
2023/08/10 04:22:00;;;;;;;5.90;3.55;;;14.60;99.90;;;;;;5013395;28;20037;-53
2023/08/10 04:24:46;;;;;;;4.38;3.53;;;14.70;99.90;;;;;;5016167;28;20034;-55
2023/08/10 04:27:35;;;;;;;3.78;3.22;;;14.70;99.90;;;;;;5012823;28;20026;-55
2023/08/10 04:30:28;;;;;;;5.40;3.40;;;14.60;99.90;;;;;;5012595;28;20100;-54
2023/08/10 04:33:14;;;;;;;5.65;3.22;;;14.60;99.90;;;;;;5013175;28;20079;-50
2023/08/10 04:36:00;;;;;;;5.05;3.42;;;14.60;99.90;;;;;;5013125;28;20029;-49
2023/08/10 04:38:46;;;;;;;5.70;4.03;;;14.60;99.90;;;;;;5011973;28;20026;-53
2023/08/10 04:41:32;;;;;;;4.45;3.67;;;14.40;99.90;;;;;;5012351;28;20037;-51
2023/08/10 04:44:18;;;;;;;5.90;3.78;;;14.50;99.90;;;;;;5011611;28;20502;-52
2023/08/10 04:47:05;;;;;;;5.20;3.50;;;14.50;99.90;;;;;;5012366;28;20049;-47
2023/08/10 04:49:50;;;;;;;4.68;3.40;;;14.50;99.90;;;;;;4998445;28;20104;-51
2023/08/10 04:52:37;;;;;;;7.35;3.30;;;14.60;99.90;;;;;;5012624;28;20483;-50
2023/08/10 04:55:25;;;;;;;5.10;3.30;;;14.70;99.90;;;;;;5012030;28;20068;-51
2023/08/10 04:58:11;;;;;;;6.28;3.28;;;14.80;99.90;;;;;;5011880;28;20133;-51
2023/08/10 05:00:57;;;;;;;4.10;3.70;;;14.90;99.90;;;;;;5011835;28;20042;-57
2023/08/10 05:03:43;;;;;;;4.18;3.53;;;15.00;99.90;;;;;;5012536;28;20491;-53
2023/08/10 05:06:29;;;;;;;5.43;3.78;;;15.00;99.90;;;;;;5011605;28;20435;-55
2023/08/10 05:09:15;;;;;;;4.72;3.60;;;15.00;99.90;;;;;;5010626;28;20026;-56
2023/08/10 05:12:01;;;;;;;5.28;3.60;;;15.00;99.90;;;;;;5011583;28;20026;-56
2023/08/10 05:14:47;;;;;;;5.10;4.30;;;15.10;99.90;;;;;;5012664;28;20030;-57
2023/08/10 05:17:33;;;;;;;7.28;4.30;;;15.00;99.90;;;;;;5012016;28;20076;-56
2023/08/10 05:20:19;;;;;;;5.97;3.90;;;14.90;99.90;;;;;;5012039;28;20034;-56
2023/08/10 05:23:05;;;;;;;4.88;3.70;;;15.00;99.90;;;;;;5012581;28;20022;-56
2023/08/10 05:25:54;;;;;;;5.68;3.53;;;15.10;99.90;;;;;;4997161;28;20030;-58
2023/08/10 05:28:40;;;;;;;7.00;3.50;;;15.10;99.90;;;;;;5011658;28;20061;-59
2023/08/10 05:31:26;;;;;;;7.90;3.47;;;15.10;99.90;;;;;;4998652;28;20026;-57
2023/08/10 05:34:12;;;;;;;5.10;3.30;;;15.20;99.90;;;;;;4997839;28;20026;-59
2023/08/10 05:36:58;;;;;;;4.82;3.40;;;15.30;99.90;;;;;;5011592;28;20448;-59
2023/08/10 05:39:44;;;;;;;4.03;3.53;;;15.40;99.90;;;;;;5012613;28;20072;-58
2023/08/10 05:42:30;;;;;;;4.80;3.40;;;15.40;99.90;;;;;;5012487;28;20038;-59
2023/08/10 05:45:19;;;;;;;6.47;4.22;;;15.50;99.90;;;;;;4997384;28;20111;-59
2023/08/10 05:48:11;;;;;;;5.65;4.53;;;15.60;99.90;;;;;;5010288;28;20041;-58
2023/08/10 05:50:57;;;;;;;4.60;4.13;;;15.60;99.90;;;;;;5011421;28;20033;-58
2023/08/10 05:53:44;;;;;;;5.80;3.83;;;15.60;99.90;;;;;;4997237;28;20026;-56
2023/08/10 05:56:30;;;;;;;4.63;4.13;;;15.70;99.90;;;;;;5012578;28;20083;-58
2023/08/10 05:59:16;;;;;;;13.90;4.40;;;15.60;99.90;;;;;;5016274;28;20026;-57
2023/08/10 06:02:02;;;;;;;6.43;4.32;;;15.60;99.90;;;;;;5016331;28;20030;-55
2023/08/10 06:04:49;;;;;;;6.10;4.03;;;15.60;99.90;;;;;;5016832;28;20026;-58
2023/08/10 06:07:35;;;;;;;7.72;4.47;;;15.70;99.90;;;;;;5014770;28;20094;-58
2023/08/10 06:10:20;;;;;;;6.53;4.28;;;15.70;99.90;;;;;;5015018;28;20049;-57
2023/08/10 06:13:09;;;;;;;5.43;4.20;;;15.70;99.90;;;;;;5016139;28;20026;-58
2023/08/10 06:15:54;;;;;;;5.10;4.00;;;15.60;99.90;;;;;;5001787;28;20030;-57
2023/08/10 06:18:40;;;;;;;4.95;4.05;;;15.80;99.90;;;;;;5016086;28;20573;-57
2023/08/10 06:21:27;;;;;;;10.23;4.85;;;15.90;99.90;;;;;;5015121;28;20403;-57
2023/08/10 06:24:16;;;;;;;9.40;4.05;;;16.10;99.90;;;;;;5014890;28;20041;-58
2023/08/10 06:27:02;;;;;;;7.38;4.40;;;16.10;99.90;;;;;;5015665;28;20037;-57
2023/08/10 06:29:48;;;;;;;10.75;4.57;;;16.20;99.90;;;;;;5015257;28;20479;-57
2023/08/10 06:32:36;;;;;;;7.47;4.63;;;16.20;99.90;;;;;;5015335;28;20403;-54
2023/08/10 06:35:22;;;;;;;6.28;4.07;;;16.10;99.90;;;;;;5014649;28;20549;-57
2023/08/10 06:38:07;;;;;;;8.07;4.45;;;16.00;99.90;;;;;;5014720;28;20030;-57
2023/08/10 06:40:55;;;;;;;5.53;4.00;;;16.10;99.90;;;;;;5014875;28;20100;-57
2023/08/10 06:43:41;;;;;;;8.35;4.30;;;16.20;99.90;;;;;;5015048;28;20041;-59
2023/08/10 06:46:28;;;;;;;5.47;3.90;;;16.20;99.90;;;;;;5014510;28;20030;-59
2023/08/10 06:49:16;;;;;;;7.65;4.25;;;16.30;99.90;;;;;;5000397;28;20030;-59
2023/08/10 06:52:03;;;;;;;4.95;4.00;;;16.20;99.90;;;;;;5014646;28;20399;-57
2023/08/10 06:54:49;;;;;;;6.00;4.35;;;16.30;99.90;;;;;;5014713;28;20038;-55
2023/08/10 06:57:36;;;;;;;8.05;3.90;;;16.40;99.90;;;;;;5000300;28;20084;-59
2023/08/10 07:00:24;;;;;;;5.22;4.30;;;16.50;99.90;;;;;;5014595;28;20041;-58
2023/08/10 07:03:10;;;;;;;6.00;4.05;;;16.70;99.90;;;;;;5013992;28;20036;-59
2023/08/10 07:05:56;;;;;;;5.97;4.00;;;16.70;99.90;;;;;;5015349;28;20037;-59
2023/08/10 07:08:42;;;;;;;8.48;5.00;;;16.80;99.90;;;;;;5013381;28;20030;-58
2023/08/10 07:11:28;;;;;;;7.70;4.88;;;17.00;99.90;;;;;;5014498;28;20064;-60
2023/08/10 07:14:14;;;;;;;8.52;4.65;;;17.10;99.90;;;;;;5013914;28;20080;-58
2023/08/10 07:17:00;;;;;;;6.05;4.30;;;17.20;99.90;;;;;;5000459;28;20034;-58
2023/08/10 07:19:46;;;;;;;13.88;5.13;;;17.20;99.90;;;;;;5014147;28;20037;-58
2023/08/10 07:22:33;;;;;;;11.27;4.55;;;17.00;99.90;;;;;;5000138;28;20642;-59
2023/08/10 07:25:19;;;;;;;6.40;4.38;;;16.90;99.90;;;;;;5014176;28;20037;-59
2023/08/10 07:28:06;;;;;;;6.28;4.30;;;17.10;99.90;;;;;;5014526;28;20092;-59
2023/08/10 07:30:52;;;;;;;10.73;5.13;;;17.20;99.90;;;;;;5013701;28;20018;-59
2023/08/10 07:33:38;;;;;;;7.03;4.45;;;17.30;99.90;;;;;;4999455;28;20033;-58
2023/08/10 07:36:25;;;;;;;6.47;4.57;;;17.50;99.90;;;;;;5013233;28;20069;-58
2023/08/10 07:39:13;;;;;;;6.05;4.53;;;17.50;99.80;;;;;;5013396;28;20017;-57
2023/08/10 07:41:59;;;;;;;9.88;4.63;;;17.60;99.90;;;;;;5014278;28;20473;-59
2023/08/10 07:44:45;;;;;;;6.75;4.47;;;17.60;99.30;;;;;;5013982;28;20068;-58
2023/08/10 07:47:31;;;;;;;8.23;4.43;;;17.70;99.50;;;;;;5013936;28;20076;-59
2023/08/10 07:50:17;;;;;;;5.88;4.07;;;17.90;99.30;;;;;;5013078;28;20491;-58
2023/08/10 07:53:03;;;;;;;6.97;4.63;;;17.90;99.30;;;;;;5013122;28;20056;-58
2023/08/10 07:55:49;;;;;;;8.82;5.28;;;18.00;99.20;;;;;;5013222;28;20140;-57
2023/08/10 07:58:35;;;;;;;7.25;4.40;;;17.90;99.60;;;;;;5014143;28;20034;-58
2023/08/10 08:01:21;;;;;;;8.18;4.55;;;17.90;99.50;;;;;;5014138;28;20026;-57
2023/08/10 08:04:07;;;;;;;8.40;5.07;;;17.90;99.40;;;;;;5013445;28;20596;-57
2023/08/10 08:06:53;;;;;;;8.75;4.80;;;18.00;99.60;;;;;;5013083;28;20084;-57
2023/08/10 08:09:39;;;;;;;6.82;5.00;;;18.00;99.30;;;;;;5012677;28;20359;-58
2023/08/10 08:12:26;;;;;;;7.43;4.32;;;18.10;99.10;;;;;;4999475;28;20026;-58
2023/08/10 08:15:12;;;;;;;6.95;4.97;;;18.20;99.30;;;;;;4998658;28;20469;-56
2023/08/10 08:18:40;;;;;;;9.10;5.32;;;18.30;99.10;;;;;;5012925;28;20521;-58
2023/08/10 08:21:27;;;;;;;7.85;5.00;;;18.20;99.50;;;;;;5013055;28;20036;-57
2023/08/10 08:24:13;;;;;;;10.35;6.00;;;18.40;99.20;;;;;;5012757;28;20041;-59
2023/08/10 08:26:59;;;;;;;9.32;5.82;;;18.50;98.90;;;;;;5012791;28;20041;-59
2023/08/10 08:29:45;;;;;;;7.47;5.50;;;18.50;98.90;;;;;;5013216;28;20255;-59
2023/08/10 08:32:31;;;;;;;9.95;5.07;;;18.40;99.20;;;;;;5013116;28;20038;-58
2023/08/10 08:35:17;;;;;;;8.20;4.88;;;18.60;99.10;;;;;;5013445;28;20069;-58
2023/08/10 08:38:04;;;;;;;7.05;4.65;;;18.80;98.90;;;;;;5013340;28;20026;-58
2023/08/10 08:40:50;;;;;;;10.07;5.50;;;18.90;98.70;;;;;;4998311;28;20034;-59
2023/08/10 08:43:37;;;;;;;7.68;5.03;;;19.00;98.30;;;;;;5012258;28;20034;-58
2023/08/10 08:46:29;;;;;;;9.85;5.75;;;19.00;97.80;;;;;;5011795;28;20034;-56
2023/08/10 08:49:15;;;;;;;9.23;5.50;;;19.10;97.90;;;;;;4997486;28;20026;-57
2023/08/10 08:52:02;;;;;;;9.55;5.70;;;19.00;98.30;;;;;;5012064;28;20030;-59
2023/08/10 08:54:48;;;;;;;7.22;5.50;;;19.30;97.30;;;;;;5012865;28;20088;-58
2023/08/10 08:57:34;;;;;;;8.30;5.25;;;19.30;97.20;;;;;;5011851;28;20498;-58
2023/08/10 09:00:20;;;;;;;7.47;4.80;;;19.40;97.40;;;;;;4998514;28;20033;-59
2023/08/10 09:03:06;;;;;;;7.30;4.97;;;19.50;97.10;;;;;;5012799;28;20434;-59
2023/08/10 09:05:53;;;;;;;7.25;4.78;;;19.70;96.30;;;;;;5012218;28;20037;-59
2023/08/10 09:08:39;;;;;;;9.20;5.20;;;19.60;96.40;;;;;;5012022;28;20586;-59
2023/08/10 09:11:25;;;;;;;7.05;5.28;;;19.50;96.30;;;;;;5012235;28;20084;-59
2023/08/10 09:14:11;;;;;;;7.15;4.50;;;19.70;95.80;;;;;;5012505;28;20105;-58
2023/08/10 09:16:57;;;;;;;8.50;4.95;;;19.80;95.80;;;;;;5012231;28;20030;-58
2023/08/10 09:19:44;;;;;;;5.88;4.57;;;19.90;96.00;;;;;;5011902;28;20026;-56
2023/08/10 09:22:38;;;;;;;8.73;4.93;;;20.00;95.90;;;;;;5011190;28;20034;-56
2023/08/10 09:25:25;;;;;;;11.48;5.55;;;20.00;96.00;;;;;;4997636;28;20585;-58
2023/08/10 09:28:15;;;;;;;5.40;4.47;;;20.20;95.70;;;;;;5011322;28;20100;-58
2023/08/10 09:31:01;;;;;;;6.35;4.10;;;20.20;95.60;;;;;;5011828;28;20027;-59
2023/08/10 09:33:53;;;;;;;11.82;4.30;;;20.20;95.10;;;;;;5012886;28;20174;-59
2023/08/10 09:36:39;;;;;;;8.88;4.47;;;20.20;95.00;;;;;;5011325;28;20230;-56
2023/08/10 09:39:29;;;;;;;8.45;4.63;;;20.20;94.70;;;;;;4996837;28;20088;-53
2023/08/10 09:42:15;;;;;;;7.20;4.57;;;20.20;94.90;;;;;;5011386;28;20559;-54
2023/08/10 09:45:08;;;;;;;6.78;4.45;;;20.30;95.20;;;;;;5012153;28;20034;-53
2023/08/10 09:47:54;;;;;;;5.45;4.18;;;20.50;94.60;;;;;;5012327;28;20041;-52
2023/08/10 09:50:45;;;;;;;6.32;4.10;;;20.70;94.50;;;;;;5011368;28;20019;-54
2023/08/10 09:53:32;;;;;;;7.57;4.30;;;20.90;94.30;;;;;;4997434;28;20020;-58
2023/08/10 09:56:18;;;;;;;6.82;4.68;;;21.10;93.80;;;;;;5010657;28;20033;-56
2023/08/10 09:59:05;;;;;;;9.13;4.85;;;21.30;93.20;;;;;;4997778;28;20053;-53
2023/08/10 10:01:53;;;;;;;6.22;4.20;;;21.20;92.90;;;;;;4984287;28;20028;-56
2023/08/10 10:04:39;;;;;;;6.75;4.30;;;20.90;93.40;;;;;;5011420;28;20080;-52
2023/08/10 10:07:28;;;;;;;6.72;4.78;;;20.90;93.70;;;;;;5010952;28;20030;-54
2023/08/10 10:10:16;;;;;;;7.28;4.32;;;21.10;93.10;;;;;;5010596;28;20045;-52
2023/08/10 10:13:09;;;;;;;6.25;4.50;;;21.10;93.50;;;;;;4997221;28;20081;-56
2023/08/10 10:15:56;;;;;;;5.32;4.00;;;21.00;93.20;;;;;;5011622;28;20030;-54
2023/08/10 10:18:42;;;;;;;6.05;3.95;;;21.30;92.80;;;;;;5000571;28;20030;-56
2023/08/10 10:21:29;;;;;;;6.45;3.90;;;21.50;91.90;;;;;;5018956;28;20040;-53
2023/08/10 10:24:18;;;;;;;7.20;4.10;;;21.40;92.10;;;;;;5011682;28;20625;-53
2023/08/10 10:27:08;;;;;;;6.97;4.18;;;21.20;92.60;;;;;;5009390;28;20030;-56
2023/08/10 10:30:01;;;;;;;5.18;4.13;;;21.00;91.90;;;;;;5011695;28;20077;-53
2023/08/10 10:32:49;;;;;;;8.13;3.75;;;20.90;92.40;;;;;;5010368;28;20092;-56
2023/08/10 10:35:36;;;;;;;5.70;4.00;;;20.80;91.70;;;;;;5011037;28;20029;-56
2023/08/10 10:38:22;;;;;;;7.82;4.32;;;21.00;91.70;;;;;;5009595;28;20104;-55
2023/08/10 10:41:15;;;;;;;5.45;3.80;;;21.00;91.10;;;;;;5010067;28;20113;-58
2023/08/10 10:44:05;;;;;;;7.45;3.85;;;20.90;90.50;;;;;;5013234;28;20564;-53
2023/08/10 10:46:51;;;;;;;8.27;4.45;;;20.70;90.40;;;;;;5014208;28;20034;-53
2023/08/10 10:49:53;;;;;;;7.05;4.10;;;20.60;90.50;;;;;;5014062;28;20084;-55
2023/08/10 10:52:39;;;;;;;5.82;3.55;;;20.60;90.70;;;;;;5014004;28;20029;-56
2023/08/10 10:55:37;;;;;;;4.50;3.70;;;20.70;90.10;;;;;;5012688;28;20030;-57
2023/08/10 10:58:25;;;;;;;6.20;3.78;;;21.00;89.10;;;;;;5013478;28;20034;-49
2023/08/10 11:01:12;;;;;;;6.22;3.33;;;21.40;88.60;;;;;;5013722;28;20026;-52
2023/08/10 11:03:59;;;;;;;4.70;3.20;;;21.20;87.30;;;;;;5013762;28;20026;-55
2023/08/10 11:06:45;;;;;;;4.93;3.20;;;21.40;86.20;;;;;;5010576;28;20038;-58
2023/08/10 11:09:31;;;;;;;3.90;2.97;;;21.50;87.00;;;;;;5004883;28;20395;-55
2023/08/10 11:12:17;;;;;;;5.43;3.17;;;21.60;86.20;;;;;;5012513;28;20091;-55
2023/08/10 11:15:06;;;;;;;4.93;3.20;;;21.50;85.20;;;;;;5013100;28;20445;-56
2023/08/10 11:17:53;;;;;;;6.15;3.30;;;21.40;81.90;;;;;;5012473;28;20041;-51
2023/08/10 11:20:46;;;;;;;6.18;3.55;;;21.50;82.00;;;;;;5009336;28;20030;-55
2023/08/10 11:23:32;;;;;;;5.05;3.15;;;21.40;81.80;;;;;;5013841;28;20506;-55
2023/08/10 11:26:19;;;;;;;5.82;3.33;;;21.50;83.40;;;;;;5013584;28;20030;-57
2023/08/10 11:29:05;;;;;;;6.50;3.00;;;21.80;82.20;;;;;;5013649;28;20026;-56
2023/08/10 11:31:53;;;;;;;3.75;3.33;;;21.80;81.30;;;;;;5002943;28;20084;-53
2023/08/10 11:34:39;;;;;;;4.78;3.00;;;21.60;83.40;;;;;;5029480;28;20113;-57
2023/08/10 11:37:33;;;;;;;4.63;2.95;;;21.40;80.40;;;;;;5032113;28;20033;-55
2023/08/10 11:40:21;;;;;;;6.32;3.03;;;21.40;81.80;;;;;;5033384;28;20494;-52
2023/08/10 11:43:12;;;;;;;4.13;3.33;;;21.40;81.70;;;;;;5032583;28;20513;-57
2023/08/10 11:45:58;;;;;;;6.75;3.50;;;21.40;82.50;;;;;;5018922;28;20042;-53
2023/08/10 11:48:44;;;;;;;6.43;3.10;;;21.50;81.90;;;;;;5013526;28;20103;-55
2023/08/10 11:51:34;;;;;;;6.18;3.30;;;21.60;80.40;;;;;;5012682;28;20054;-56
2023/08/10 11:54:28;;;;;;;6.30;3.38;;;21.90;82.70;;;;;;4996841;28;20105;-58
2023/08/10 11:57:14;;;;;;;6.50;3.50;;;21.80;83.70;;;;;;5010706;28;20022;-56
2023/08/10 12:00:34;;;;;;;10.05;4.22;;;21.80;84.30;;;;;;5012122;28;20517;-56
2023/08/10 12:03:25;;;;;;;4.07;3.38;;;22.00;84.70;;;;;;5012388;28;20120;-57
2023/08/10 12:06:15;;;;;;;5.68;3.38;;;22.30;84.40;;;;;;5014996;28;20118;-55
2023/08/10 12:09:08;;;;;;;9.98;4.10;;;22.40;84.10;;;;;;5012824;28;20030;-56
2023/08/10 12:11:54;;;;;;;5.47;3.42;;;22.40;84.70;;;;;;4998834;28;20018;-53
2023/08/10 12:14:41;;;;;;;7.97;4.00;;;22.40;85.10;;;;;;5012231;28;20085;-55
2023/08/10 12:17:27;;;;;;;8.25;3.45;;;22.40;84.80;;;;;;5012332;28;20033;-57
2023/08/10 12:20:13;;;;;;;6.00;3.60;;;22.30;83.50;;;;;;5012487;28;20036;-55
2023/08/10 12:22:59;;;;;;;6.53;3.70;;;22.10;84.70;;;;;;5012204;28;20552;-56
2023/08/10 12:25:47;;;;;;;4.85;3.20;;;22.00;85.10;;;;;;5012869;28;20041;-51
2023/08/10 12:28:33;;;;;;;5.88;3.58;;;22.00;84.50;;;;;;5012087;28;20037;-53
2023/08/10 12:31:20;;;;;;;7.93;3.97;;;21.90;84.00;;;;;;5012127;28;20034;-57
2023/08/10 12:34:06;;;;;;;7.57;3.55;;;22.10;83.40;;;;;;5012261;28;20034;-54
2023/08/10 12:36:52;;;;;;;5.53;3.50;;;22.10;84.30;;;;;;5010637;28;20115;-49
2023/08/10 12:39:38;;;;;;;6.40;3.67;;;22.10;82.90;;;;;;5009440;28;20038;-50
2023/08/10 12:42:26;;;;;;;5.47;3.50;;;22.10;83.90;;;;;;5011825;28;20042;-54
2023/08/10 12:45:13;;;;;;;6.25;3.65;;;22.20;84.20;;;;;;5011589;28;20041;-53
2023/08/10 12:48:00;;;;;;;6.53;3.45;;;22.20;82.50;;;;;;5011925;28;20094;-54
2023/08/10 12:50:46;;;;;;;6.55;3.50;;;22.30;83.00;;;;;;5012143;28;20375;-58
2023/08/10 12:53:32;;;;;;;4.50;3.42;;;22.60;82.80;;;;;;4997805;28;20064;-54
2023/08/10 12:56:18;;;;;;;4.63;3.50;;;22.50;81.20;;;;;;5010773;28;20536;-57
2023/08/10 12:59:04;;;;;;;5.97;3.60;;;22.50;81.00;;;;;;5020822;28;20501;-52
2023/08/10 13:01:52;;;;;;;5.82;3.58;;;22.40;81.00;;;;;;5017463;28;20021;-53
2023/08/10 13:04:37;;;;;;;6.00;3.20;;;22.30;82.00;;;;;;5031567;28;20040;-52
2023/08/10 13:07:23;;;;;;;7.78;3.90;;;22.30;81.20;;;;;;5030912;28;20749;-51
2023/08/10 13:10:10;;;;;;;5.05;3.60;;;22.30;83.20;;;;;;5031294;28;20095;-52
2023/08/10 13:12:57;;;;;;;6.05;3.90;;;22.20;82.10;;;;;;5031511;28;20053;-52
2023/08/10 13:15:43;;;;;;;7.00;3.90;;;22.20;82.60;;;;;;5020509;28;20015;-52
2023/08/10 13:18:29;;;;;;;7.32;3.22;;;22.50;81.50;;;;;;5008704;28;20507;-52
2023/08/10 13:21:15;;;;;;;5.53;3.88;;;22.60;81.30;;;;;;5010916;28;20030;-53
2023/08/10 13:24:02;;;;;;;8.48;4.07;;;22.90;81.30;;;;;;5010876;28;20092;-53
2023/08/10 13:26:48;;;;;;;7.85;3.42;;;23.10;80.60;;;;;;5009767;28;20038;-49
2023/08/10 13:29:35;;;;;;;4.20;3.20;;;23.50;79.20;;;;;;5010729;28;20026;-48
2023/08/10 13:32:22;;;;;;;4.47;3.35;;;23.70;79.90;;;;;;5010993;28;20084;-54
2023/08/10 13:35:08;;;;;;;6.60;3.40;;;23.80;79.60;;;;;;5010652;28;20509;-49
2023/08/10 13:37:54;;;;;;;9.68;3.97;;;24.10;77.60;;;;;;5010704;28;20057;-54
2023/08/10 13:40:40;;;;;;;4.38;3.20;;;24.10;77.10;;;;;;5010629;28;20034;-51
2023/08/10 13:43:26;;;;;;;7.85;3.30;;;24.40;75.70;;;;;;5010759;28;20410;-54
2023/08/10 13:46:12;;;;;;;5.65;3.42;;;24.40;74.10;;;;;;5011493;28;20481;-54
2023/08/10 13:48:58;;;;;;;7.13;3.47;;;24.30;75.80;;;;;;5010521;28;20038;-50
2023/08/10 13:51:44;;;;;;;5.25;3.40;;;24.30;75.90;;;;;;5010510;28;20442;-51
2023/08/10 13:54:33;;;;;;;6.13;3.75;;;24.60;75.40;;;;;;4997232;28;20049;-53
2023/08/10 13:57:19;;;;;;;7.85;3.60;;;24.70;75.40;;;;;;5010379;28;20106;-52
2023/08/10 14:00:07;;;;;;;6.47;3.60;;;25.00;74.80;;;;;;4997010;28;20030;-55
2023/08/10 14:02:54;;;;;;;8.95;3.17;;;24.90;74.20;;;;;;4997863;28;20030;-55
2023/08/10 14:05:40;;;;;;;4.75;3.28;;;25.10;75.00;;;;;;5010788;28;20038;-50
2023/08/10 14:08:25;;;;;;;4.35;3.42;;;25.30;75.10;;;;;;5010779;28;20034;-52
2023/08/10 14:11:11;;;;;;;5.85;3.40;;;25.10;74.90;;;;;;5006868;28;20166;-55
2023/08/10 14:13:57;;;;;;;4.65;3.38;;;25.10;74.10;;;;;;5010769;28;20030;-52
2023/08/10 14:16:44;;;;;;;6.25;4.03;;;25.00;74.00;;;;;;4997615;28;20030;-50
2023/08/10 14:19:30;;;;;;;3.63;3.30;;;25.20;73.40;;;;;;5013688;28;20036;-52
2023/08/10 14:22:16;;;;;;;4.40;3.13;;;25.30;73.60;;;;;;5000793;28;20124;-55
2023/08/10 14:25:03;;;;;;;7.13;3.70;;;25.40;73.60;;;;;;5014958;28;20038;-52
2023/08/10 14:27:49;;;;;;;5.43;3.22;;;25.40;71.60;;;;;;5013712;28;20052;-50
2023/08/10 14:30:35;;;;;;;5.95;3.47;;;25.40;71.90;;;;;;5014227;28;20022;-52